Tampa International Airport
KTPA : now visible

Airfield :











YOU CAN JOIN US ON...

 
LOGIN :

Register | Disclaimer

   EN    FR    IT 

 









Legend :    VFR   Marginal VFR   IFR   Intensive IFR   Very Intensive IFR
Visi :
Ceiling :
>= 8 km
>= 3000ft
5 to 8 km
1000 to 3000 ft
1500m to 5 km
500 to 1000 ft
800 to 1500m
200 to 500 ft
< 800m
< 200 ft
Symbols :   Thunderstorms  Fog  Heavy snow  Heavy precipitations  Wind > 20 kt






- Airport Elevation : 26 ft
- IATA code : TPA


KTPA - Tampa International

CURRENT METAR :
  • 191753Z 19009KT 10SM FEW055 SCT090 BKN160 BKN220 23/18 A3011 RMK AO2 SLP195 T02330178 10233 20189 58014 $

EXPIRED METARs :
  • 191653Z 18006KT 10SM FEW026 SCT038 BKN130 BKN220 22/17 A3014 RMK AO2 SLP204 T02170172 $
  • 191553Z 21006KT 10SM FEW045 SCT080 BKN160 BKN220 22/17 A3016 RMK AO2 SLP211 T02170167

TAF KTPA
Valid from the 19 at 18:00 until the 21 at 00:00 UTC


191743Z 1918/2024 19008KT P6SM VCSH SCT030 BKN120 BKN250
FM192000 26008KT P6SM VCSH BKN025 OVC090
FM200100 33010KT P6SM SCT015 BKN040
FM200700 36011KT P6SM SCT060 BKN250
FM201300 35008KT P6SM FEW250



MET'MAP, your aeronautical weather chart ! - Copyright ORBIFLY December 2007 - Disclaimer

ORBIFLY MET'MAP TEAM :

Programming & Development : Alexandra Zaïnal
Concept & original design : Baudouin d'Aumeries
Assistance for programming : Marc-Olivier Méhu
Technical & hardware support : Manuel Goepfert

Contact : metmap@orbifly.com




SOURCES & CREDITS :

   NOAA       Earth
Advisory